Terminal Aerodrome Forecast
Issued by NWS

Home | Current Version | Previous Version | Text Only | Print | Product List | Glossary On
Versions: 1 2 3 4 5 6 7 8 9 10 11
000
FTUS45 KABQ 260500
TAFAEG
TAF
KAEG 260536Z 2606/2706 25011KT P6SM OVC050
      TEMPO 2607/2611 4SM -SN OVC025
     FM261100 VRB03KT P6SM BKN040
     FM261700 27014G24KT P6SM VCSH BKN050
     FM270100 31006KT P6SM BKN090=

USA.gov is the U.S. government's official web portal to all federal, state and local government web resources and services.